sensor_id;sensor_type;location;lat;lon;timestamp;temperature;humidity
22288;DHT22;11312;51.464;6.968;2023-03-05T00:01:51;5.50;99.90
22288;DHT22;11312;51.464;6.968;2023-03-05T00:04:17;5.40;99.90
22288;DHT22;11312;51.464;6.968;2023-03-05T00:06:42;5.40;99.90
22288;DHT22;11312;51.464;6.968;2023-03-05T00:09:08;5.40;99.90
22288;DHT22;11312;51.464;6.968;2023-03-05T00:11:34;5.40;99.90
22288;DHT22;11312;51.464;6.968;2023-03-05T00:14:01;5.40;99.90
22288;DHT22;11312;51.464;6.968;2023-03-05T00:16:28;5.50;99.90
22288;DHT22;11312;51.464;6.968;2023-03-05T00:18:55;5.50;99.90
22288;DHT22;11312;51.464;6.968;2023-03-05T00:21:31;5.40;99.90
22288;DHT22;11312;51.464;6.968;2023-03-05T00:23:58;5.40;99.90
22288;DHT22;11312;51.464;6.968;2023-03-05T00:26:26;5.40;99.90
22288;DHT22;11312;51.464;6.968;2023-03-05T00:28:53;5.40;99.90
22288;DHT22;11312;51.464;6.968;2023-03-05T00:31:21;5.30;99.90
22288;DHT22;11312;51.464;6.968;2023-03-05T00:33:55;5.20;99.90
22288;DHT22;11312;51.464;6.968;2023-03-05T00:36:20;5.20;99.90
22288;DHT22;11312;51.464;6.968;2023-03-05T00:38:46;5.10;99.90
22288;DHT22;11312;51.464;6.968;2023-03-05T00:41:12;5.10;99.90
22288;DHT22;11312;51.464;6.968;2023-03-05T00:43:38;5.10;99.90
22288;DHT22;11312;51.464;6.968;2023-03-05T00:46:03;5.20;99.90
22288;DHT22;11312;51.464;6.968;2023-03-05T00:48:29;5.20;99.90
22288;DHT22;11312;51.464;6.968;2023-03-05T00:50:55;5.10;99.90
22288;DHT22;11312;51.464;6.968;2023-03-05T00:53:20;5.20;99.90
22288;DHT22;11312;51.464;6.968;2023-03-05T00:55:46;5.30;99.90
22288;DHT22;11312;51.464;6.968;2023-03-05T00:58:12;5.20;99.90
22288;DHT22;11312;51.464;6.968;2023-03-05T01:00:38;5.10;99.90
22288;DHT22;11312;51.464;6.968;2023-03-05T01:03:04;5.20;99.90
22288;DHT22;11312;51.464;6.968;2023-03-05T01:05:30;5.10;99.90
22288;DHT22;11312;51.464;6.968;2023-03-05T01:07:55;5.10;99.90
22288;DHT22;11312;51.464;6.968;2023-03-05T01:10:22;5.00;99.90
22288;DHT22;11312;51.464;6.968;2023-03-05T01:12:55;5.10;99.90
22288;DHT22;11312;51.464;6.968;2023-03-05T01:15:21;5.10;99.90
22288;DHT22;11312;51.464;6.968;2023-03-05T01:17:46;5.10;99.90
22288;DHT22;11312;51.464;6.968;2023-03-05T01:20:13;5.10;99.90
22288;DHT22;11312;51.464;6.968;2023-03-05T01:22:39;5.10;99.90
22288;DHT22;11312;51.464;6.968;2023-03-05T01:25:05;5.00;99.90
22288;DHT22;11312;51.464;6.968;2023-03-05T01:27:31;4.90;99.90
22288;DHT22;11312;51.464;6.968;2023-03-05T01:29:56;4.90;99.90
22288;DHT22;11312;51.464;6.968;2023-03-05T01:32:22;4.90;99.90
22288;DHT22;11312;51.464;6.968;2023-03-05T01:34:48;5.00;99.90
22288;DHT22;11312;51.464;6.968;2023-03-05T01:37:13;5.00;99.90
22288;DHT22;11312;51.464;6.968;2023-03-05T01:39:39;5.60;99.90
22288;DHT22;11312;51.464;6.968;2023-03-05T01:42:05;5.00;99.90
22288;DHT22;11312;51.464;6.968;2023-03-05T01:44:31;4.90;99.90
22288;DHT22;11312;51.464;6.968;2023-03-05T01:46:57;4.80;99.90
22288;DHT22;11312;51.464;6.968;2023-03-05T01:49:27;4.90;99.90
22288;DHT22;11312;51.464;6.968;2023-03-05T01:54:49;4.90;99.90
22288;DHT22;11312;51.464;6.968;2023-03-05T01:57:22;4.80;99.90
22288;DHT22;11312;51.464;6.968;2023-03-05T01:59:54;4.80;99.90
22288;DHT22;11312;51.464;6.968;2023-03-05T02:02:21;4.80;99.90
22288;DHT22;11312;51.464;6.968;2023-03-05T02:05:06;4.70;99.90
22288;DHT22;11312;51.464;6.968;2023-03-05T02:07:33;4.70;99.90
22288;DHT22;11312;51.464;6.968;2023-03-05T02:10:13;4.70;99.90
22288;DHT22;11312;51.464;6.968;2023-03-05T02:12:38;4.60;99.90
22288;DHT22;11312;51.464;6.968;2023-03-05T02:15:05;4.70;99.90
22288;DHT22;11312;51.464;6.968;2023-03-05T02:17:30;4.60;99.90
22288;DHT22;11312;51.464;6.968;2023-03-05T02:20:07;4.70;99.90
22288;DHT22;11312;51.464;6.968;2023-03-05T02:22:33;4.60;99.90
22288;DHT22;11312;51.464;6.968;2023-03-05T02:24:59;4.60;99.90
22288;DHT22;11312;51.464;6.968;2023-03-05T02:27:29;4.70;99.90
22288;DHT22;11312;51.464;6.968;2023-03-05T02:30:00;4.60;99.90
22288;DHT22;11312;51.464;6.968;2023-03-05T02:32:26;4.60;99.90
22288;DHT22;11312;51.464;6.968;2023-03-05T02:34:52;4.70;99.90
22288;DHT22;11312;51.464;6.968;2023-03-05T02:37:18;4.70;99.90
22288;DHT22;11312;51.464;6.968;2023-03-05T02:39:43;4.60;99.90
22288;DHT22;11312;51.464;6.968;2023-03-05T02:42:09;6.00;99.90
22288;DHT22;11312;51.464;6.968;2023-03-05T02:44:35;4.60;99.90
22288;DHT22;11312;51.464;6.968;2023-03-05T02:47:00;4.60;99.90
22288;DHT22;11312;51.464;6.968;2023-03-05T02:49:26;4.60;99.90
22288;DHT22;11312;51.464;6.968;2023-03-05T02:51:52;4.70;99.90
22288;DHT22;11312;51.464;6.968;2023-03-05T02:54:18;4.60;99.90
22288;DHT22;11312;51.464;6.968;2023-03-05T02:56:44;4.60;99.90
22288;DHT22;11312;51.464;6.968;2023-03-05T02:59:09;4.60;99.90
22288;DHT22;11312;51.464;6.968;2023-03-05T03:01:35;4.60;99.90
22288;DHT22;11312;51.464;6.968;2023-03-05T03:04:01;4.60;99.90
22288;DHT22;11312;51.464;6.968;2023-03-05T03:06:26;4.50;99.90
22288;DHT22;11312;51.464;6.968;2023-03-05T03:08:52;4.60;99.90
22288;DHT22;11312;51.464;6.968;2023-03-05T03:11:17;4.60;99.90
22288;DHT22;11312;51.464;6.968;2023-03-05T03:13:43;4.70;99.90
22288;DHT22;11312;51.464;6.968;2023-03-05T03:16:12;4.60;99.90
22288;DHT22;11312;51.464;6.968;2023-03-05T03:18:38;4.60;99.90
22288;DHT22;11312;51.464;6.968;2023-03-05T03:21:04;4.60;99.90
22288;DHT22;11312;51.464;6.968;2023-03-05T03:23:30;4.50;99.90
22288;DHT22;11312;51.464;6.968;2023-03-05T03:25:56;4.50;99.90
22288;DHT22;11312;51.464;6.968;2023-03-05T03:28:21;4.50;99.90
22288;DHT22;11312;51.464;6.968;2023-03-05T03:30:47;4.60;99.90
22288;DHT22;11312;51.464;6.968;2023-03-05T03:33:13;4.50;99.90
22288;DHT22;11312;51.464;6.968;2023-03-05T03:35:38;4.50;99.90
22288;DHT22;11312;51.464;6.968;2023-03-05T03:38:04;4.50;99.90
22288;DHT22;11312;51.464;6.968;2023-03-05T03:40:30;4.60;99.90
22288;DHT22;11312;51.464;6.968;2023-03-05T03:42:55;4.50;99.90
22288;DHT22;11312;51.464;6.968;2023-03-05T03:45:21;4.50;99.90
22288;DHT22;11312;51.464;6.968;2023-03-05T03:47:48;4.50;99.90
22288;DHT22;11312;51.464;6.968;2023-03-05T03:50:14;4.50;99.90
22288;DHT22;11312;51.464;6.968;2023-03-05T03:52:39;4.60;99.90
22288;DHT22;11312;51.464;6.968;2023-03-05T03:55:05;4.60;99.90
22288;DHT22;11312;51.464;6.968;2023-03-05T03:57:31;4.60;99.90
22288;DHT22;11312;51.464;6.968;2023-03-05T03:59:58;4.50;99.90
22288;DHT22;11312;51.464;6.968;2023-03-05T04:02:24;4.60;99.90
22288;DHT22;11312;51.464;6.968;2023-03-05T04:04:51;4.50;99.90
22288;DHT22;11312;51.464;6.968;2023-03-05T04:07:17;4.50;99.90
22288;DHT22;11312;51.464;6.968;2023-03-05T04:09:42;4.50;99.90
22288;DHT22;11312;51.464;6.968;2023-03-05T04:12:08;4.50;99.90
22288;DHT22;11312;51.464;6.968;2023-03-05T04:14:34;4.50;99.90
22288;DHT22;11312;51.464;6.968;2023-03-05T04:17:00;4.50;99.90
22288;DHT22;11312;51.464;6.968;2023-03-05T04:19:26;4.40;99.90
22288;DHT22;11312;51.464;6.968;2023-03-05T04:21:52;4.50;99.90
22288;DHT22;11312;51.464;6.968;2023-03-05T04:24:18;4.40;99.90
22288;DHT22;11312;51.464;6.968;2023-03-05T04:26:44;4.40;99.90
22288;DHT22;11312;51.464;6.968;2023-03-05T04:29:09;4.40;99.90
22288;DHT22;11312;51.464;6.968;2023-03-05T04:31:35;4.40;99.90
22288;DHT22;11312;51.464;6.968;2023-03-05T04:34:01;4.30;99.90
22288;DHT22;11312;51.464;6.968;2023-03-05T04:36:26;4.20;99.90
22288;DHT22;11312;51.464;6.968;2023-03-05T04:38:52;4.20;99.90
22288;DHT22;11312;51.464;6.968;2023-03-05T04:41:18;4.30;99.90
22288;DHT22;11312;51.464;6.968;2023-03-05T04:43:43;4.30;99.90
22288;DHT22;11312;51.464;6.968;2023-03-05T04:46:09;4.30;99.90
22288;DHT22;11312;51.464;6.968;2023-03-05T04:48:34;4.30;99.90
22288;DHT22;11312;51.464;6.968;2023-03-05T04:51:00;4.30;99.90
22288;DHT22;11312;51.464;6.968;2023-03-05T04:53:26;4.20;99.90
22288;DHT22;11312;51.464;6.968;2023-03-05T04:55:54;4.30;99.90
22288;DHT22;11312;51.464;6.968;2023-03-05T04:58:21;4.10;99.90
22288;DHT22;11312;51.464;6.968;2023-03-05T05:00:46;4.00;99.90
22288;DHT22;11312;51.464;6.968;2023-03-05T05:03:12;3.80;99.90
22288;DHT22;11312;51.464;6.968;2023-03-05T05:05:38;4.00;99.90
22288;DHT22;11312;51.464;6.968;2023-03-05T05:08:04;3.90;99.90
22288;DHT22;11312;51.464;6.968;2023-03-05T05:10:29;3.80;99.90
22288;DHT22;11312;51.464;6.968;2023-03-05T05:12:56;3.90;99.90
22288;DHT22;11312;51.464;6.968;2023-03-05T05:15:22;4.10;99.90
22288;DHT22;11312;51.464;6.968;2023-03-05T05:17:48;3.80;99.90
22288;DHT22;11312;51.464;6.968;2023-03-05T05:20:15;3.80;99.90
22288;DHT22;11312;51.464;6.968;2023-03-05T05:22:42;3.80;99.90
22288;DHT22;11312;51.464;6.968;2023-03-05T05:25:08;3.90;99.90
22288;DHT22;11312;51.464;6.968;2023-03-05T05:27:35;4.00;99.90
22288;DHT22;11312;51.464;6.968;2023-03-05T05:30:01;4.20;99.90
22288;DHT22;11312;51.464;6.968;2023-03-05T05:32:26;4.20;99.90
22288;DHT22;11312;51.464;6.968;2023-03-05T05:34:56;4.20;99.90
22288;DHT22;11312;51.464;6.968;2023-03-05T05:37:23;4.20;99.90
22288;DHT22;11312;51.464;6.968;2023-03-05T05:39:49;4.10;99.90
22288;DHT22;11312;51.464;6.968;2023-03-05T05:42:20;4.20;99.90
22288;DHT22;11312;51.464;6.968;2023-03-05T05:44:46;4.20;99.90
22288;DHT22;11312;51.464;6.968;2023-03-05T05:47:13;4.30;99.90
22288;DHT22;11312;51.464;6.968;2023-03-05T05:49:39;4.20;99.90
22288;DHT22;11312;51.464;6.968;2023-03-05T05:52:05;4.30;99.90
22288;DHT22;11312;51.464;6.968;2023-03-05T05:54:31;4.30;99.90
22288;DHT22;11312;51.464;6.968;2023-03-05T05:56:56;4.20;99.90
22288;DHT22;11312;51.464;6.968;2023-03-05T05:59:22;4.30;99.90
22288;DHT22;11312;51.464;6.968;2023-03-05T06:01:48;4.10;99.90
22288;DHT22;11312;51.464;6.968;2023-03-05T06:04:13;4.00;99.90
22288;DHT22;11312;51.464;6.968;2023-03-05T06:06:39;4.00;99.90
22288;DHT22;11312;51.464;6.968;2023-03-05T06:09:04;4.10;99.90
22288;DHT22;11312;51.464;6.968;2023-03-05T06:11:30;4.00;99.90
22288;DHT22;11312;51.464;6.968;2023-03-05T06:13:56;4.20;99.90
22288;DHT22;11312;51.464;6.968;2023-03-05T06:16:23;4.10;99.90
22288;DHT22;11312;51.464;6.968;2023-03-05T06:18:50;4.10;99.90
22288;DHT22;11312;51.464;6.968;2023-03-05T06:21:17;4.20;99.90
22288;DHT22;11312;51.464;6.968;2023-03-05T06:23:44;4.20;99.90
22288;DHT22;11312;51.464;6.968;2023-03-05T06:26:13;4.30;99.90
22288;DHT22;11312;51.464;6.968;2023-03-05T06:28:39;4.40;99.90
22288;DHT22;11312;51.464;6.968;2023-03-05T06:31:17;4.10;99.90
22288;DHT22;11312;51.464;6.968;2023-03-05T06:33:43;4.20;99.90
22288;DHT22;11312;51.464;6.968;2023-03-05T06:36:15;4.20;99.90
22288;DHT22;11312;51.464;6.968;2023-03-05T06:38:41;4.30;99.90
22288;DHT22;11312;51.464;6.968;2023-03-05T06:41:12;4.40;99.90
22288;DHT22;11312;51.464;6.968;2023-03-05T06:43:40;4.40;99.90
22288;DHT22;11312;51.464;6.968;2023-03-05T06:46:22;4.40;99.90
22288;DHT22;11312;51.464;6.968;2023-03-05T06:48:49;4.40;99.90
22288;DHT22;11312;51.464;6.968;2023-03-05T06:51:26;4.40;99.90
22288;DHT22;11312;51.464;6.968;2023-03-05T06:53:53;4.50;99.90
22288;DHT22;11312;51.464;6.968;2023-03-05T06:56:19;4.50;99.90
22288;DHT22;11312;51.464;6.968;2023-03-05T06:58:47;4.50;99.90
22288;DHT22;11312;51.464;6.968;2023-03-05T07:01:14;4.70;99.90
22288;DHT22;11312;51.464;6.968;2023-03-05T07:03:40;4.60;99.90
22288;DHT22;11312;51.464;6.968;2023-03-05T07:06:08;4.70;99.90
22288;DHT22;11312;51.464;6.968;2023-03-05T07:08:34;4.60;99.90
22288;DHT22;11312;51.464;6.968;2023-03-05T07:11:00;4.70;99.90
22288;DHT22;11312;51.464;6.968;2023-03-05T07:13:26;4.60;99.90
22288;DHT22;11312;51.464;6.968;2023-03-05T07:15:52;4.70;99.90
22288;DHT22;11312;51.464;6.968;2023-03-05T07:18:18;4.70;99.90
22288;DHT22;11312;51.464;6.968;2023-03-05T07:20:43;4.70;99.90
22288;DHT22;11312;51.464;6.968;2023-03-05T07:23:09;4.60;99.90
22288;DHT22;11312;51.464;6.968;2023-03-05T07:25:35;4.50;99.90
22288;DHT22;11312;51.464;6.968;2023-03-05T07:28:03;4.60;99.90
22288;DHT22;11312;51.464;6.968;2023-03-05T07:30:30;4.70;99.90
22288;DHT22;11312;51.464;6.968;2023-03-05T07:32:55;4.80;99.90
22288;DHT22;11312;51.464;6.968;2023-03-05T07:35:21;4.80;99.90
22288;DHT22;11312;51.464;6.968;2023-03-05T07:37:48;4.70;99.90
22288;DHT22;11312;51.464;6.968;2023-03-05T07:40:14;4.80;99.90
22288;DHT22;11312;51.464;6.968;2023-03-05T07:42:40;5.10;99.90
22288;DHT22;11312;51.464;6.968;2023-03-05T07:45:06;5.00;1.00
22288;DHT22;11312;51.464;6.968;2023-03-05T07:47:32;5.00;25.30
22288;DHT22;11312;51.464;6.968;2023-03-05T07:49:57;5.00;16.20
22288;DHT22;11312;51.464;6.968;2023-03-05T07:52:23;5.10;3.40
22288;DHT22;11312;51.464;6.968;2023-03-05T07:54:49;5.00;23.70
22288;DHT22;11312;51.464;6.968;2023-03-05T07:57:14;5.00;28.80
22288;DHT22;11312;51.464;6.968;2023-03-05T07:59:40;5.00;32.10
22288;DHT22;11312;51.464;6.968;2023-03-05T08:02:06;5.10;99.90
22288;DHT22;11312;51.464;6.968;2023-03-05T08:04:32;5.10;99.90
22288;DHT22;11312;51.464;6.968;2023-03-05T08:06:58;5.00;99.90
22288;DHT22;11312;51.464;6.968;2023-03-05T08:09:24;5.10;99.90
22288;DHT22;11312;51.464;6.968;2023-03-05T08:11:50;5.00;99.90
22288;DHT22;11312;51.464;6.968;2023-03-05T08:14:16;5.00;99.90
22288;DHT22;11312;51.464;6.968;2023-03-05T08:16:42;5.00;99.90
22288;DHT22;11312;51.464;6.968;2023-03-05T08:19:09;5.00;99.90
22288;DHT22;11312;51.464;6.968;2023-03-05T08:21:35;4.80;99.90
22288;DHT22;11312;51.464;6.968;2023-03-05T08:24:04;4.90;99.90
22288;DHT22;11312;51.464;6.968;2023-03-05T08:26:31;4.70;99.90
22288;DHT22;11312;51.464;6.968;2023-03-05T08:28:57;4.70;99.90
22288;DHT22;11312;51.464;6.968;2023-03-05T08:31:25;4.70;99.90
22288;DHT22;11312;51.464;6.968;2023-03-05T08:33:54;4.60;99.90
22288;DHT22;11312;51.464;6.968;2023-03-05T08:36:20;4.60;99.90
22288;DHT22;11312;51.464;6.968;2023-03-05T08:38:46;4.70;99.90
22288;DHT22;11312;51.464;6.968;2023-03-05T08:41:14;4.60;99.90
22288;DHT22;11312;51.464;6.968;2023-03-05T08:43:40;4.60;99.90
22288;DHT22;11312;51.464;6.968;2023-03-05T08:46:06;4.70;99.90
22288;DHT22;11312;51.464;6.968;2023-03-05T08:48:32;4.60;99.90
22288;DHT22;11312;51.464;6.968;2023-03-05T08:51:07;4.60;99.90
22288;DHT22;11312;51.464;6.968;2023-03-05T08:53:33;4.70;99.90
22288;DHT22;11312;51.464;6.968;2023-03-05T08:55:59;4.70;99.90
22288;DHT22;11312;51.464;6.968;2023-03-05T08:58:25;4.80;99.90
22288;DHT22;11312;51.464;6.968;2023-03-05T09:00:51;4.80;99.90
22288;DHT22;11312;51.464;6.968;2023-03-05T09:03:16;4.80;99.90
22288;DHT22;11312;51.464;6.968;2023-03-05T09:05:42;4.80;99.90
22288;DHT22;11312;51.464;6.968;2023-03-05T09:08:08;4.80;99.90
22288;DHT22;11312;51.464;6.968;2023-03-05T09:10:33;4.80;99.90
22288;DHT22;11312;51.464;6.968;2023-03-05T09:12:59;4.70;99.90
22288;DHT22;11312;51.464;6.968;2023-03-05T09:15:25;4.80;99.90
22288;DHT22;11312;51.464;6.968;2023-03-05T09:17:50;4.80;99.90
22288;DHT22;11312;51.464;6.968;2023-03-05T09:20:16;4.90;99.90
22288;DHT22;11312;51.464;6.968;2023-03-05T09:22:42;5.00;99.90
22288;DHT22;11312;51.464;6.968;2023-03-05T09:25:10;4.90;99.90
22288;DHT22;11312;51.464;6.968;2023-03-05T09:27:36;4.90;99.90
22288;DHT22;11312;51.464;6.968;2023-03-05T09:30:04;5.00;99.90
22288;DHT22;11312;51.464;6.968;2023-03-05T09:32:30;5.10;99.90
22288;DHT22;11312;51.464;6.968;2023-03-05T09:34:56;5.20;99.90
22288;DHT22;11312;51.464;6.968;2023-03-05T09:37:22;5.20;99.90
22288;DHT22;11312;51.464;6.968;2023-03-05T09:39:48;5.30;99.90
22288;DHT22;11312;51.464;6.968;2023-03-05T09:42:44;5.50;99.90
22288;DHT22;11312;51.464;6.968;2023-03-05T09:50:29;5.80;99.90
22288;DHT22;11312;51.464;6.968;2023-03-05T09:53:24;5.90;99.90
22288;DHT22;11312;51.464;6.968;2023-03-05T09:56:00;6.00;99.90
22288;DHT22;11312;51.464;6.968;2023-03-05T09:58:37;6.20;99.90
22288;DHT22;11312;51.464;6.968;2023-03-05T10:01:21;6.60;1.00
22288;DHT22;11312;51.464;6.968;2023-03-05T10:03:54;7.10;22.70
22288;DHT22;11312;51.464;6.968;2023-03-05T10:07:03;7.30;1.00
22288;DHT22;11312;51.464;6.968;2023-03-05T10:14:49;6.80;99.90
22288;DHT22;11312;51.464;6.968;2023-03-05T10:17:47;6.70;99.90
22288;DHT22;11312;51.464;6.968;2023-03-05T10:34:11;7.30;99.90
22288;DHT22;11312;51.464;6.968;2023-03-05T10:42:36;6.70;99.90
22288;DHT22;11312;51.464;6.968;2023-03-05T10:50:47;6.30;1.00
22288;DHT22;11312;51.464;6.968;2023-03-05T10:53:25;5.90;1.00
22288;DHT22;11312;51.464;6.968;2023-03-05T10:55:52;5.60;1.00
22288;DHT22;11312;51.464;6.968;2023-03-05T10:58:22;5.50;99.90
22288;DHT22;11312;51.464;6.968;2023-03-05T11:06:12;4.70;1.00
22288;DHT22;11312;51.464;6.968;2023-03-05T11:08:38;4.90;13.10
22288;DHT22;11312;51.464;6.968;2023-03-05T11:16:44;5.80;99.90
22288;DHT22;11312;51.464;6.968;2023-03-05T11:19:14;4.70;99.90
22288;DHT22;11312;51.464;6.968;2023-03-05T11:21:43;4.70;99.90
22288;DHT22;11312;51.464;6.968;2023-03-05T11:24:15;4.90;99.90
22288;DHT22;11312;51.464;6.968;2023-03-05T11:26:49;4.90;99.90
22288;DHT22;11312;51.464;6.968;2023-03-05T11:29:26;5.00;99.90
22288;DHT22;11312;51.464;6.968;2023-03-05T11:31:52;5.40;99.90
22288;DHT22;11312;51.464;6.968;2023-03-05T11:39:17;6.10;99.90
22288;DHT22;11312;51.464;6.968;2023-03-05T11:42:05;6.20;99.90
22288;DHT22;11312;51.464;6.968;2023-03-05T11:44:49;6.70;99.90
22288;DHT22;11312;51.464;6.968;2023-03-05T11:47:48;7.30;99.90
22288;DHT22;11312;51.464;6.968;2023-03-05T11:50:31;8.40;99.90
22288;DHT22;11312;51.464;6.968;2023-03-05T11:52:58;9.30;99.90
22288;DHT22;11312;51.464;6.968;2023-03-05T11:58:23;9.70;99.90
22288;DHT22;11312;51.464;6.968;2023-03-05T12:00:50;10.10;99.90
22288;DHT22;11312;51.464;6.968;2023-03-05T12:03:20;10.20;99.90
22288;DHT22;11312;51.464;6.968;2023-03-05T12:05:50;10.00;99.90
22288;DHT22;11312;51.464;6.968;2023-03-05T12:08:22;9.20;99.90
22288;DHT22;11312;51.464;6.968;2023-03-05T12:10:50;8.90;1.00
22288;DHT22;11312;51.464;6.968;2023-03-05T12:13:29;8.60;99.90
22288;DHT22;11312;51.464;6.968;2023-03-05T12:16:32;8.30;99.90
22288;DHT22;11312;51.464;6.968;2023-03-05T12:19:21;7.80;1.00
22288;DHT22;11312;51.464;6.968;2023-03-05T12:21:53;7.10;25.30
22288;DHT22;11312;51.464;6.968;2023-03-05T12:31:58;6.60;99.90
22288;DHT22;11312;51.464;6.968;2023-03-05T12:47:40;6.90;1.00
22288;DHT22;11312;51.464;6.968;2023-03-05T13:03:42;7.60;99.90
22288;DHT22;11312;51.464;6.968;2023-03-05T13:06:29;7.80;99.90
22288;DHT22;11312;51.464;6.968;2023-03-05T13:09:44;7.90;99.90
22288;DHT22;11312;51.464;6.968;2023-03-05T13:11:48;8.50;99.90
22288;DHT22;11312;51.464;6.968;2023-03-05T13:16:58;13.30;1.00
22288;DHT22;11312;51.464;6.968;2023-03-05T13:19:23;12.40;99.90
22288;DHT22;11312;51.464;6.968;2023-03-05T13:22:08;10.00;99.90
22288;DHT22;11312;51.464;6.968;2023-03-05T13:24:35;9.80;99.90
22288;DHT22;11312;51.464;6.968;2023-03-05T13:27:00;9.20;99.90
22288;DHT22;11312;51.464;6.968;2023-03-05T13:29:26;8.80;99.90
22288;DHT22;11312;51.464;6.968;2023-03-05T13:32:16;8.30;1.00
22288;DHT22;11312;51.464;6.968;2023-03-05T13:34:45;7.80;1.00
22288;DHT22;11312;51.464;6.968;2023-03-05T13:37:18;8.00;98.70
22288;DHT22;11312;51.464;6.968;2023-03-05T13:39:55;7.10;36.80
22288;DHT22;11312;51.464;6.968;2023-03-05T13:42:30;7.20;99.90
22288;DHT22;11312;51.464;6.968;2023-03-05T13:45:02;7.20;99.90
22288;DHT22;11312;51.464;6.968;2023-03-05T13:47:31;7.50;99.90
22288;DHT22;11312;51.464;6.968;2023-03-05T13:50:01;7.50;99.90
22288;DHT22;11312;51.464;6.968;2023-03-05T13:52:33;8.00;99.90
22288;DHT22;11312;51.464;6.968;2023-03-05T13:54:59;8.20;1.00
22288;DHT22;11312;51.464;6.968;2023-03-05T13:57:38;8.30;1.00
22288;DHT22;11312;51.464;6.968;2023-03-05T14:00:26;7.90;1.00
22288;DHT22;11312;51.464;6.968;2023-03-05T14:02:54;9.30;99.90
22288;DHT22;11312;51.464;6.968;2023-03-05T14:05:20;10.40;99.90
22288;DHT22;11312;51.464;6.968;2023-03-05T14:07:48;9.00;50.70
22288;DHT22;11312;51.464;6.968;2023-03-05T14:10:36;9.90;99.90
22288;DHT22;11312;51.464;6.968;2023-03-05T14:13:12;11.10;99.90
22288;DHT22;11312;51.464;6.968;2023-03-05T14:15:39;11.10;1.00
22288;DHT22;11312;51.464;6.968;2023-03-05T14:21:01;10.20;1.00
22288;DHT22;11312;51.464;6.968;2023-03-05T14:23:32;10.00;1.00
22288;DHT22;11312;51.464;6.968;2023-03-05T14:28:43;11.00;19.60
22288;DHT22;11312;51.464;6.968;2023-03-05T14:31:16;10.30;43.60
22288;DHT22;11312;51.464;6.968;2023-03-05T14:33:43;10.40;99.90
22288;DHT22;11312;51.464;6.968;2023-03-05T14:36:09;9.20;99.90
22288;DHT22;11312;51.464;6.968;2023-03-05T14:38:39;8.30;1.00
22288;DHT22;11312;51.464;6.968;2023-03-05T14:41:38;8.40;99.90
22288;DHT22;11312;51.464;6.968;2023-03-05T14:44:15;8.60;1.00
22288;DHT22;11312;51.464;6.968;2023-03-05T14:46:42;7.80;99.90
22288;DHT22;11312;51.464;6.968;2023-03-05T14:49:08;7.90;1.00
22288;DHT22;11312;51.464;6.968;2023-03-05T14:51:39;7.70;1.00
22288;DHT22;11312;51.464;6.968;2023-03-05T14:54:14;7.50;1.00
22288;DHT22;11312;51.464;6.968;2023-03-05T14:56:41;7.70;1.00
22288;DHT22;11312;51.464;6.968;2023-03-05T14:59:08;7.50;1.00
22288;DHT22;11312;51.464;6.968;2023-03-05T15:01:33;7.60;99.90
22288;DHT22;11312;51.464;6.968;2023-03-05T15:03:59;7.90;99.90
22288;DHT22;11312;51.464;6.968;2023-03-05T15:06:36;9.00;99.90
22288;DHT22;11312;51.464;6.968;2023-03-05T15:09:04;9.30;99.90
22288;DHT22;11312;51.464;6.968;2023-03-05T15:11:30;9.40;35.00
22288;DHT22;11312;51.464;6.968;2023-03-05T15:13:56;9.00;99.90
22288;DHT22;11312;51.464;6.968;2023-03-05T15:16:22;8.50;99.90
22288;DHT22;11312;51.464;6.968;2023-03-05T15:18:48;7.50;1.00
22288;DHT22;11312;51.464;6.968;2023-03-05T15:21:14;7.40;1.00
22288;DHT22;11312;51.464;6.968;2023-03-05T15:23:39;7.50;1.00
22288;DHT22;11312;51.464;6.968;2023-03-05T15:26:07;7.40;1.00
22288;DHT22;11312;51.464;6.968;2023-03-05T15:28:35;7.50;57.20
22288;DHT22;11312;51.464;6.968;2023-03-05T15:31:02;7.60;1.00
22288;DHT22;11312;51.464;6.968;2023-03-05T15:33:28;7.40;1.00
22288;DHT22;11312;51.464;6.968;2023-03-05T15:35:56;7.60;99.90
22288;DHT22;11312;51.464;6.968;2023-03-05T15:38:22;7.20;1.00
22288;DHT22;11312;51.464;6.968;2023-03-05T15:40:48;7.10;1.00
22288;DHT22;11312;51.464;6.968;2023-03-05T15:43:15;7.50;1.00
22288;DHT22;11312;51.464;6.968;2023-03-05T15:45:41;7.40;1.00
22288;DHT22;11312;51.464;6.968;2023-03-05T15:48:07;6.80;1.00
22288;DHT22;11312;51.464;6.968;2023-03-05T15:50:33;6.80;99.90
22288;DHT22;11312;51.464;6.968;2023-03-05T15:52:58;6.90;99.90
22288;DHT22;11312;51.464;6.968;2023-03-05T15:55:24;7.10;1.00
22288;DHT22;11312;51.464;6.968;2023-03-05T15:57:51;6.80;99.90
22288;DHT22;11312;51.464;6.968;2023-03-05T16:00:23;6.60;1.00
22288;DHT22;11312;51.464;6.968;2023-03-05T16:02:50;6.50;1.00
22288;DHT22;11312;51.464;6.968;2023-03-05T16:05:16;6.70;99.90
22288;DHT22;11312;51.464;6.968;2023-03-05T16:07:45;6.90;1.00
22288;DHT22;11312;51.464;6.968;2023-03-05T16:10:14;6.90;99.90
22288;DHT22;11312;51.464;6.968;2023-03-05T16:12:44;6.90;1.00
22288;DHT22;11312;51.464;6.968;2023-03-05T16:15:15;6.80;99.90
22288;DHT22;11312;51.464;6.968;2023-03-05T16:17:43;6.70;1.00
22288;DHT22;11312;51.464;6.968;2023-03-05T16:20:11;6.50;1.00
22288;DHT22;11312;51.464;6.968;2023-03-05T16:22:37;6.60;99.90
22288;DHT22;11312;51.464;6.968;2023-03-05T16:25:03;6.50;1.00
22288;DHT22;11312;51.464;6.968;2023-03-05T16:27:29;6.30;1.00
22288;DHT22;11312;51.464;6.968;2023-03-05T16:29:55;6.30;1.00
22288;DHT22;11312;51.464;6.968;2023-03-05T16:32:22;6.30;11.20
22288;DHT22;11312;51.464;6.968;2023-03-05T16:34:48;6.10;99.90
22288;DHT22;11312;51.464;6.968;2023-03-05T16:37:18;6.20;99.90
22288;DHT22;11312;51.464;6.968;2023-03-05T16:39:45;6.10;99.90
22288;DHT22;11312;51.464;6.968;2023-03-05T16:42:10;6.20;1.00
22288;DHT22;11312;51.464;6.968;2023-03-05T16:44:41;6.20;1.00
22288;DHT22;11312;51.464;6.968;2023-03-05T16:47:08;6.20;1.00
22288;DHT22;11312;51.464;6.968;2023-03-05T16:49:34;6.20;1.00
22288;DHT22;11312;51.464;6.968;2023-03-05T16:52:00;6.20;99.90
22288;DHT22;11312;51.464;6.968;2023-03-05T16:54:26;6.20;1.00
22288;DHT22;11312;51.464;6.968;2023-03-05T16:56:52;6.00;99.90
22288;DHT22;11312;51.464;6.968;2023-03-05T16:59:18;6.70;1.00
22288;DHT22;11312;51.464;6.968;2023-03-05T17:01:44;6.10;99.90
22288;DHT22;11312;51.464;6.968;2023-03-05T17:04:09;6.10;92.20
22288;DHT22;11312;51.464;6.968;2023-03-05T17:06:35;6.00;1.00
22288;DHT22;11312;51.464;6.968;2023-03-05T17:09:01;6.00;1.00
22288;DHT22;11312;51.464;6.968;2023-03-05T17:11:27;5.80;99.90
22288;DHT22;11312;51.464;6.968;2023-03-05T17:13:53;5.90;1.00
22288;DHT22;11312;51.464;6.968;2023-03-05T17:16:20;5.90;99.90
22288;DHT22;11312;51.464;6.968;2023-03-05T17:18:46;5.90;1.00
22288;DHT22;11312;51.464;6.968;2023-03-05T17:21:13;5.80;99.90
22288;DHT22;11312;51.464;6.968;2023-03-05T17:23:40;5.80;99.90
22288;DHT22;11312;51.464;6.968;2023-03-05T17:26:11;5.90;1.00
22288;DHT22;11312;51.464;6.968;2023-03-05T17:28:38;5.90;26.30
22288;DHT22;11312;51.464;6.968;2023-03-05T17:31:04;5.70;99.90
22288;DHT22;11312;51.464;6.968;2023-03-05T17:33:31;5.90;1.00
22288;DHT22;11312;51.464;6.968;2023-03-05T17:35:57;5.90;1.00